sensor_id;sensor_type;location;lat;lon;timestamp;temperature;humidity
29917;DHT22;16786;49.466;11.068;2023-07-29T00:00:50;17.70;99.90
29917;DHT22;16786;49.466;11.068;2023-07-29T00:03:18;17.70;99.90
29917;DHT22;16786;49.466;11.068;2023-07-29T00:05:46;17.70;99.90
29917;DHT22;16786;49.466;11.068;2023-07-29T00:08:14;17.70;99.90
29917;DHT22;16786;49.466;11.068;2023-07-29T00:10:41;17.70;99.90
29917;DHT22;16786;49.466;11.068;2023-07-29T00:13:09;17.70;99.90
29917;DHT22;16786;49.466;11.068;2023-07-29T00:15:36;17.70;99.90
29917;DHT22;16786;49.466;11.068;2023-07-29T00:18:03;17.80;99.90
29917;DHT22;16786;49.466;11.068;2023-07-29T00:20:31;17.70;99.90
29917;DHT22;16786;49.466;11.068;2023-07-29T00:22:58;17.70;99.90
29917;DHT22;16786;49.466;11.068;2023-07-29T00:25:26;17.70;99.90
29917;DHT22;16786;49.466;11.068;2023-07-29T00:27:57;17.70;99.90
29917;DHT22;16786;49.466;11.068;2023-07-29T00:30:25;17.70;99.90
29917;DHT22;16786;49.466;11.068;2023-07-29T00:32:52;17.70;99.90
29917;DHT22;16786;49.466;11.068;2023-07-29T00:35:20;17.80;99.90
29917;DHT22;16786;49.466;11.068;2023-07-29T00:37:47;17.70;99.90
29917;DHT22;16786;49.466;11.068;2023-07-29T00:40:19;17.70;99.90
29917;DHT22;16786;49.466;11.068;2023-07-29T00:42:48;17.70;99.90
29917;DHT22;16786;49.466;11.068;2023-07-29T00:45:15;17.70;99.90
29917;DHT22;16786;49.466;11.068;2023-07-29T00:47:44;17.70;99.90
29917;DHT22;16786;49.466;11.068;2023-07-29T00:50:12;17.70;99.90
29917;DHT22;16786;49.466;11.068;2023-07-29T00:52:41;17.60;99.90
29917;DHT22;16786;49.466;11.068;2023-07-29T00:55:08;17.60;99.90
29917;DHT22;16786;49.466;11.068;2023-07-29T00:57:36;17.60;99.90
29917;DHT22;16786;49.466;11.068;2023-07-29T01:00:04;17.60;99.90
29917;DHT22;16786;49.466;11.068;2023-07-29T01:02:32;17.50;99.90
29917;DHT22;16786;49.466;11.068;2023-07-29T01:05:00;17.60;99.90
29917;DHT22;16786;49.466;11.068;2023-07-29T01:07:49;17.50;99.90
29917;DHT22;16786;49.466;11.068;2023-07-29T01:10:46;17.50;99.90
29917;DHT22;16786;49.466;11.068;2023-07-29T01:13:26;17.40;99.90
29917;DHT22;16786;49.466;11.068;2023-07-29T01:16:02;17.40;99.90
29917;DHT22;16786;49.466;11.068;2023-07-29T01:18:32;17.40;99.90
29917;DHT22;16786;49.466;11.068;2023-07-29T01:21:08;17.40;99.90
29917;DHT22;16786;49.466;11.068;2023-07-29T01:23:37;17.30;99.90
29917;DHT22;16786;49.466;11.068;2023-07-29T01:26:05;17.30;99.90
29917;DHT22;16786;49.466;11.068;2023-07-29T01:28:33;17.30;99.90
29917;DHT22;16786;49.466;11.068;2023-07-29T01:31:27;17.30;99.90
29917;DHT22;16786;49.466;11.068;2023-07-29T01:34:05;17.20;99.90
29917;DHT22;16786;49.466;11.068;2023-07-29T01:36:34;17.20;99.90
29917;DHT22;16786;49.466;11.068;2023-07-29T01:39:06;17.20;99.90
29917;DHT22;16786;49.466;11.068;2023-07-29T01:41:36;17.10;99.90
29917;DHT22;16786;49.466;11.068;2023-07-29T01:44:03;17.10;99.90
29917;DHT22;16786;49.466;11.068;2023-07-29T01:46:33;17.10;99.90
29917;DHT22;16786;49.466;11.068;2023-07-29T01:49:01;17.10;99.90
29917;DHT22;16786;49.466;11.068;2023-07-29T01:51:30;17.10;99.90
29917;DHT22;16786;49.466;11.068;2023-07-29T01:53:58;17.10;99.90
29917;DHT22;16786;49.466;11.068;2023-07-29T01:56:26;17.10;99.90
29917;DHT22;16786;49.466;11.068;2023-07-29T01:58:55;17.00;99.90
29917;DHT22;16786;49.466;11.068;2023-07-29T02:01:23;17.00;99.90
29917;DHT22;16786;49.466;11.068;2023-07-29T02:03:51;17.10;99.90
29917;DHT22;16786;49.466;11.068;2023-07-29T02:06:23;17.00;99.90
29917;DHT22;16786;49.466;11.068;2023-07-29T02:08:51;17.00;99.90
29917;DHT22;16786;49.466;11.068;2023-07-29T02:11:18;17.00;99.90
29917;DHT22;16786;49.466;11.068;2023-07-29T02:13:48;16.90;99.90
29917;DHT22;16786;49.466;11.068;2023-07-29T02:16:16;16.90;99.90
29917;DHT22;16786;49.466;11.068;2023-07-29T02:18:43;16.90;99.90
29917;DHT22;16786;49.466;11.068;2023-07-29T02:21:10;17.00;99.90
29917;DHT22;16786;49.466;11.068;2023-07-29T02:23:38;16.90;99.90
29917;DHT22;16786;49.466;11.068;2023-07-29T02:26:05;16.90;99.90
29917;DHT22;16786;49.466;11.068;2023-07-29T02:28:33;16.90;99.90
29917;DHT22;16786;49.466;11.068;2023-07-29T02:31:16;16.90;99.90
29917;DHT22;16786;49.466;11.068;2023-07-29T02:33:47;16.90;99.90
29917;DHT22;16786;49.466;11.068;2023-07-29T02:36:15;16.90;99.90
29917;DHT22;16786;49.466;11.068;2023-07-29T02:38:43;16.80;99.90
29917;DHT22;16786;49.466;11.068;2023-07-29T02:41:11;16.80;99.90
29917;DHT22;16786;49.466;11.068;2023-07-29T02:43:43;16.70;99.90
29917;DHT22;16786;49.466;11.068;2023-07-29T02:46:14;16.70;99.90
29917;DHT22;16786;49.466;11.068;2023-07-29T02:48:42;16.70;99.90
29917;DHT22;16786;49.466;11.068;2023-07-29T02:51:10;16.70;99.90
29917;DHT22;16786;49.466;11.068;2023-07-29T02:53:37;16.70;99.90
29917;DHT22;16786;49.466;11.068;2023-07-29T02:56:05;16.70;99.90
29917;DHT22;16786;49.466;11.068;2023-07-29T02:58:33;16.70;99.90
29917;DHT22;16786;49.466;11.068;2023-07-29T03:01:05;16.60;99.90
29917;DHT22;16786;49.466;11.068;2023-07-29T03:03:32;16.60;99.90
29917;DHT22;16786;49.466;11.068;2023-07-29T03:06:03;16.60;99.90
29917;DHT22;16786;49.466;11.068;2023-07-29T03:08:30;16.60;99.90
29917;DHT22;16786;49.466;11.068;2023-07-29T03:10:58;16.60;99.90
29917;DHT22;16786;49.466;11.068;2023-07-29T03:13:26;16.60;99.90
29917;DHT22;16786;49.466;11.068;2023-07-29T03:15:53;16.60;99.90
29917;DHT22;16786;49.466;11.068;2023-07-29T03:18:21;16.60;99.90
29917;DHT22;16786;49.466;11.068;2023-07-29T03:20:49;16.60;99.90
29917;DHT22;16786;49.466;11.068;2023-07-29T03:23:16;16.60;99.90
29917;DHT22;16786;49.466;11.068;2023-07-29T03:25:43;16.70;99.90
29917;DHT22;16786;49.466;11.068;2023-07-29T03:28:12;16.70;99.90
29917;DHT22;16786;49.466;11.068;2023-07-29T03:30:39;16.70;99.90
29917;DHT22;16786;49.466;11.068;2023-07-29T03:33:07;16.70;99.90
29917;DHT22;16786;49.466;11.068;2023-07-29T03:35:34;16.70;99.90
29917;DHT22;16786;49.466;11.068;2023-07-29T03:38:02;16.70;99.90
29917;DHT22;16786;49.466;11.068;2023-07-29T03:40:29;16.80;99.90
29917;DHT22;16786;49.466;11.068;2023-07-29T03:42:56;16.80;99.90
29917;DHT22;16786;49.466;11.068;2023-07-29T03:45:24;16.80;99.90
29917;DHT22;16786;49.466;11.068;2023-07-29T03:47:51;16.80;99.90
29917;DHT22;16786;49.466;11.068;2023-07-29T03:50:19;16.80;99.90
29917;DHT22;16786;49.466;11.068;2023-07-29T03:52:46;16.90;99.90
29917;DHT22;16786;49.466;11.068;2023-07-29T03:55:13;16.90;99.90
29917;DHT22;16786;49.466;11.068;2023-07-29T03:57:41;16.90;99.90
29917;DHT22;16786;49.466;11.068;2023-07-29T04:00:08;17.00;99.90
29917;DHT22;16786;49.466;11.068;2023-07-29T04:02:42;17.00;99.90
29917;DHT22;16786;49.466;11.068;2023-07-29T04:05:10;17.00;99.90
29917;DHT22;16786;49.466;11.068;2023-07-29T04:07:38;17.10;99.90
29917;DHT22;16786;49.466;11.068;2023-07-29T04:10:06;17.20;99.90
29917;DHT22;16786;49.466;11.068;2023-07-29T04:12:33;17.20;99.90
29917;DHT22;16786;49.466;11.068;2023-07-29T04:15:01;17.20;99.90
29917;DHT22;16786;49.466;11.068;2023-07-29T04:17:29;17.30;99.90
29917;DHT22;16786;49.466;11.068;2023-07-29T04:19:56;17.40;99.90
29917;DHT22;16786;49.466;11.068;2023-07-29T04:22:29;17.40;99.90
29917;DHT22;16786;49.466;11.068;2023-07-29T04:24:56;17.50;99.90
29917;DHT22;16786;49.466;11.068;2023-07-29T04:27:23;17.50;99.90
29917;DHT22;16786;49.466;11.068;2023-07-29T04:29:51;17.70;99.90
29917;DHT22;16786;49.466;11.068;2023-07-29T04:32:18;17.70;99.90
29917;DHT22;16786;49.466;11.068;2023-07-29T04:34:46;17.80;99.90
29917;DHT22;16786;49.466;11.068;2023-07-29T04:37:13;17.90;99.90
29917;DHT22;16786;49.466;11.068;2023-07-29T04:39:40;18.00;99.90
29917;DHT22;16786;49.466;11.068;2023-07-29T04:42:08;18.00;99.90
29917;DHT22;16786;49.466;11.068;2023-07-29T04:44:35;18.10;99.90
29917;DHT22;16786;49.466;11.068;2023-07-29T04:47:02;18.20;99.90
29917;DHT22;16786;49.466;11.068;2023-07-29T04:49:30;18.20;99.90
29917;DHT22;16786;49.466;11.068;2023-07-29T04:51:57;18.30;99.90
29917;DHT22;16786;49.466;11.068;2023-07-29T04:54:24;18.40;99.90
29917;DHT22;16786;49.466;11.068;2023-07-29T04:56:52;18.50;99.90
29917;DHT22;16786;49.466;11.068;2023-07-29T04:59:19;18.50;99.90
29917;DHT22;16786;49.466;11.068;2023-07-29T05:01:46;18.60;99.90
29917;DHT22;16786;49.466;11.068;2023-07-29T05:04:15;18.60;99.90
29917;DHT22;16786;49.466;11.068;2023-07-29T05:06:43;18.70;99.90
29917;DHT22;16786;49.466;11.068;2023-07-29T05:09:19;18.70;99.90
29917;DHT22;16786;49.466;11.068;2023-07-29T05:11:48;18.70;99.90
29917;DHT22;16786;49.466;11.068;2023-07-29T05:14:17;18.70;99.90
29917;DHT22;16786;49.466;11.068;2023-07-29T05:16:44;18.70;99.90
29917;DHT22;16786;49.466;11.068;2023-07-29T05:19:12;18.80;99.90
29917;DHT22;16786;49.466;11.068;2023-07-29T05:21:39;18.80;99.90
29917;DHT22;16786;49.466;11.068;2023-07-29T05:24:07;18.80;99.90
29917;DHT22;16786;49.466;11.068;2023-07-29T05:26:34;18.80;99.90
29917;DHT22;16786;49.466;11.068;2023-07-29T05:29:02;18.80;99.90
29917;DHT22;16786;49.466;11.068;2023-07-29T05:31:31;18.80;99.90
29917;DHT22;16786;49.466;11.068;2023-07-29T05:33:59;18.90;99.90
29917;DHT22;16786;49.466;11.068;2023-07-29T05:36:29;18.90;99.90
29917;DHT22;16786;49.466;11.068;2023-07-29T05:38:56;18.90;99.90
29917;DHT22;16786;49.466;11.068;2023-07-29T05:41:24;19.00;99.90
29917;DHT22;16786;49.466;11.068;2023-07-29T05:43:53;19.00;99.90
29917;DHT22;16786;49.466;11.068;2023-07-29T05:46:20;19.00;99.90
29917;DHT22;16786;49.466;11.068;2023-07-29T05:48:47;19.10;99.90
29917;DHT22;16786;49.466;11.068;2023-07-29T05:51:15;19.20;99.90
29917;DHT22;16786;49.466;11.068;2023-07-29T05:53:42;19.30;99.90
29917;DHT22;16786;49.466;11.068;2023-07-29T05:56:09;19.30;99.90
29917;DHT22;16786;49.466;11.068;2023-07-29T05:58:37;19.30;99.90
29917;DHT22;16786;49.466;11.068;2023-07-29T06:01:06;19.30;99.90
29917;DHT22;16786;49.466;11.068;2023-07-29T06:03:34;19.30;99.90
29917;DHT22;16786;49.466;11.068;2023-07-29T06:06:02;19.20;99.90
29917;DHT22;16786;49.466;11.068;2023-07-29T06:08:29;19.10;99.90
29917;DHT22;16786;49.466;11.068;2023-07-29T06:10:56;19.10;99.90
29917;DHT22;16786;49.466;11.068;2023-07-29T06:13:24;19.10;99.90
29917;DHT22;16786;49.466;11.068;2023-07-29T06:15:51;19.10;99.90
29917;DHT22;16786;49.466;11.068;2023-07-29T06:18:19;18.90;99.90
29917;DHT22;16786;49.466;11.068;2023-07-29T06:20:46;18.90;99.90
29917;DHT22;16786;49.466;11.068;2023-07-29T06:23:13;18.90;99.90
29917;DHT22;16786;49.466;11.068;2023-07-29T06:25:41;18.80;99.90
29917;DHT22;16786;49.466;11.068;2023-07-29T06:28:11;18.80;99.90
29917;DHT22;16786;49.466;11.068;2023-07-29T06:30:39;18.70;99.90
29917;DHT22;16786;49.466;11.068;2023-07-29T06:33:06;18.70;99.90
29917;DHT22;16786;49.466;11.068;2023-07-29T06:35:33;18.70;99.90
29917;DHT22;16786;49.466;11.068;2023-07-29T06:38:01;18.60;99.90
29917;DHT22;16786;49.466;11.068;2023-07-29T06:40:28;18.70;99.90
29917;DHT22;16786;49.466;11.068;2023-07-29T06:42:55;18.70;99.90
29917;DHT22;16786;49.466;11.068;2023-07-29T06:45:23;18.70;99.90
29917;DHT22;16786;49.466;11.068;2023-07-29T06:47:50;18.70;99.90
29917;DHT22;16786;49.466;11.068;2023-07-29T06:50:17;18.60;99.90
29917;DHT22;16786;49.466;11.068;2023-07-29T06:52:45;18.40;99.90
29917;DHT22;16786;49.466;11.068;2023-07-29T06:55:12;18.20;99.90
29917;DHT22;16786;49.466;11.068;2023-07-29T06:57:40;18.10;99.90
29917;DHT22;16786;49.466;11.068;2023-07-29T07:00:09;18.00;99.90
29917;DHT22;16786;49.466;11.068;2023-07-29T07:02:36;18.00;99.90
29917;DHT22;16786;49.466;11.068;2023-07-29T07:05:04;17.90;99.90
29917;DHT22;16786;49.466;11.068;2023-07-29T07:07:32;18.00;99.90
29917;DHT22;16786;49.466;11.068;2023-07-29T07:09:59;18.00;99.90
29917;DHT22;16786;49.466;11.068;2023-07-29T07:12:28;18.00;99.90
29917;DHT22;16786;49.466;11.068;2023-07-29T07:14:55;18.10;99.90
29917;DHT22;16786;49.466;11.068;2023-07-29T07:17:23;18.20;99.90
29917;DHT22;16786;49.466;11.068;2023-07-29T07:19:50;18.20;99.90
29917;DHT22;16786;49.466;11.068;2023-07-29T07:22:18;18.20;99.90
29917;DHT22;16786;49.466;11.068;2023-07-29T07:24:45;18.30;99.90
29917;DHT22;16786;49.466;11.068;2023-07-29T07:27:13;18.50;99.90
29917;DHT22;16786;49.466;11.068;2023-07-29T07:29:40;18.70;99.90
29917;DHT22;16786;49.466;11.068;2023-07-29T07:32:07;18.90;99.90
29917;DHT22;16786;49.466;11.068;2023-07-29T07:34:35;19.00;99.90
29917;DHT22;16786;49.466;11.068;2023-07-29T07:37:02;19.10;99.90
29917;DHT22;16786;49.466;11.068;2023-07-29T07:39:31;19.30;99.90
29917;DHT22;16786;49.466;11.068;2023-07-29T07:41:59;19.40;99.90
29917;DHT22;16786;49.466;11.068;2023-07-29T07:44:26;19.50;99.90
29917;DHT22;16786;49.466;11.068;2023-07-29T07:46:53;19.60;99.90
29917;DHT22;16786;49.466;11.068;2023-07-29T07:49:22;19.70;99.90
29917;DHT22;16786;49.466;11.068;2023-07-29T07:51:49;19.60;99.90
29917;DHT22;16786;49.466;11.068;2023-07-29T07:54:16;19.60;99.90
29917;DHT22;16786;49.466;11.068;2023-07-29T07:56:44;19.60;99.90
29917;DHT22;16786;49.466;11.068;2023-07-29T07:59:11;19.50;99.90
29917;DHT22;16786;49.466;11.068;2023-07-29T08:01:41;19.40;99.90
29917;DHT22;16786;49.466;11.068;2023-07-29T08:04:08;19.40;99.90
29917;DHT22;16786;49.466;11.068;2023-07-29T08:06:36;19.30;99.90
29917;DHT22;16786;49.466;11.068;2023-07-29T08:09:04;19.20;99.90
29917;DHT22;16786;49.466;11.068;2023-07-29T08:11:32;19.10;99.90
29917;DHT22;16786;49.466;11.068;2023-07-29T08:13:59;19.00;99.90
29917;DHT22;16786;49.466;11.068;2023-07-29T08:16:26;18.90;99.90
29917;DHT22;16786;49.466;11.068;2023-07-29T08:18:54;18.90;99.90
29917;DHT22;16786;49.466;11.068;2023-07-29T08:21:21;18.90;99.90
29917;DHT22;16786;49.466;11.068;2023-07-29T08:23:49;19.00;99.90
29917;DHT22;16786;49.466;11.068;2023-07-29T08:26:16;18.90;99.90
29917;DHT22;16786;49.466;11.068;2023-07-29T08:28:43;19.00;99.90
29917;DHT22;16786;49.466;11.068;2023-07-29T08:31:11;18.90;99.90
29917;DHT22;16786;49.466;11.068;2023-07-29T08:33:38;18.90;99.90
29917;DHT22;16786;49.466;11.068;2023-07-29T08:36:05;18.80;99.90
29917;DHT22;16786;49.466;11.068;2023-07-29T08:38:33;18.80;99.90
29917;DHT22;16786;49.466;11.068;2023-07-29T08:41:19;18.80;99.90
29917;DHT22;16786;49.466;11.068;2023-07-29T08:46:39;18.90;99.90
29917;DHT22;16786;49.466;11.068;2023-07-29T08:49:08;18.90;99.90
29917;DHT22;16786;49.466;11.068;2023-07-29T08:51:36;18.80;99.90
29917;DHT22;16786;49.466;11.068;2023-07-29T08:54:04;18.80;99.90
29917;DHT22;16786;49.466;11.068;2023-07-29T08:56:32;18.90;99.90
29917;DHT22;16786;49.466;11.068;2023-07-29T08:58:59;18.90;99.90
29917;DHT22;16786;49.466;11.068;2023-07-29T09:01:29;18.90;99.90
29917;DHT22;16786;49.466;11.068;2023-07-29T09:03:58;18.80;99.90
29917;DHT22;16786;49.466;11.068;2023-07-29T09:06:26;18.80;99.90
29917;DHT22;16786;49.466;11.068;2023-07-29T09:08:54;18.80;99.90
29917;DHT22;16786;49.466;11.068;2023-07-29T09:11:23;18.90;99.90
29917;DHT22;16786;49.466;11.068;2023-07-29T09:13:51;18.90;99.90
29917;DHT22;16786;49.466;11.068;2023-07-29T09:16:23;18.90;99.90
29917;DHT22;16786;49.466;11.068;2023-07-29T09:18:51;19.00;99.90
29917;DHT22;16786;49.466;11.068;2023-07-29T09:21:25;19.10;99.90
29917;DHT22;16786;49.466;11.068;2023-07-29T09:23:54;19.10;99.90
29917;DHT22;16786;49.466;11.068;2023-07-29T09:26:25;19.10;99.90
29917;DHT22;16786;49.466;11.068;2023-07-29T09:28:57;19.10;99.90
29917;DHT22;16786;49.466;11.068;2023-07-29T09:31:26;19.00;99.90
29917;DHT22;16786;49.466;11.068;2023-07-29T09:33:56;19.00;99.90
29917;DHT22;16786;49.466;11.068;2023-07-29T09:36:25;19.00;99.90
29917;DHT22;16786;49.466;11.068;2023-07-29T09:38:54;19.00;99.90
29917;DHT22;16786;49.466;11.068;2023-07-29T09:41:26;19.10;99.90
29917;DHT22;16786;49.466;11.068;2023-07-29T09:43:57;19.20;99.90
29917;DHT22;16786;49.466;11.068;2023-07-29T09:46:26;19.30;99.90
29917;DHT22;16786;49.466;11.068;2023-07-29T09:48:58;19.50;99.90
29917;DHT22;16786;49.466;11.068;2023-07-29T09:51:26;19.60;99.90
29917;DHT22;16786;49.466;11.068;2023-07-29T09:53:53;19.70;99.90
29917;DHT22;16786;49.466;11.068;2023-07-29T09:56:25;19.90;99.90
29917;DHT22;16786;49.466;11.068;2023-07-29T09:58:56;20.20;99.90
29917;DHT22;16786;49.466;11.068;2023-07-29T10:01:24;20.60;99.90
29917;DHT22;16786;49.466;11.068;2023-07-29T10:03:52;21.00;99.90
29917;DHT22;16786;49.466;11.068;2023-07-29T10:06:20;21.40;99.90
29917;DHT22;16786;49.466;11.068;2023-07-29T10:08:49;21.30;99.90
29917;DHT22;16786;49.466;11.068;2023-07-29T10:11:17;21.60;99.90
29917;DHT22;16786;49.466;11.068;2023-07-29T10:13:48;21.70;99.90
29917;DHT22;16786;49.466;11.068;2023-07-29T10:16:37;22.00;99.90
29917;DHT22;16786;49.466;11.068;2023-07-29T10:19:07;22.30;99.90
29917;DHT22;16786;49.466;11.068;2023-07-29T10:21:38;22.60;99.90
29917;DHT22;16786;49.466;11.068;2023-07-29T10:24:09;22.70;99.90
29917;DHT22;16786;49.466;11.068;2023-07-29T10:26:39;22.90;99.90
29917;DHT22;16786;49.466;11.068;2023-07-29T10:29:12;22.90;99.90
29917;DHT22;16786;49.466;11.068;2023-07-29T10:31:44;23.00;99.90
29917;DHT22;16786;49.466;11.068;2023-07-29T10:34:12;23.20;99.90
29917;DHT22;16786;49.466;11.068;2023-07-29T10:36:41;23.10;99.90
29917;DHT22;16786;49.466;11.068;2023-07-29T10:39:09;23.00;99.90
29917;DHT22;16786;49.466;11.068;2023-07-29T10:41:58;23.20;99.90
29917;DHT22;16786;49.466;11.068;2023-07-29T10:47:15;22.90;99.90
29917;DHT22;16786;49.466;11.068;2023-07-29T10:49:44;23.00;99.90
29917;DHT22;16786;49.466;11.068;2023-07-29T10:52:17;22.80;99.90
29917;DHT22;16786;49.466;11.068;2023-07-29T10:54:54;23.00;99.90
29917;DHT22;16786;49.466;11.068;2023-07-29T10:57:35;23.30;99.90
29917;DHT22;16786;49.466;11.068;2023-07-29T11:00:04;23.70;99.90
29917;DHT22;16786;49.466;11.068;2023-07-29T11:02:36;23.90;99.90
29917;DHT22;16786;49.466;11.068;2023-07-29T11:05:07;23.90;99.90
29917;DHT22;16786;49.466;11.068;2023-07-29T11:07:46;23.90;99.90
29917;DHT22;16786;49.466;11.068;2023-07-29T11:10:14;24.50;99.90
29917;DHT22;16786;49.466;11.068;2023-07-29T11:12:52;24.90;99.90
29917;DHT22;16786;49.466;11.068;2023-07-29T11:15:25;24.50;99.90
29917;DHT22;16786;49.466;11.068;2023-07-29T11:17:58;24.10;99.90
29917;DHT22;16786;49.466;11.068;2023-07-29T11:20:31;23.80;99.90
29917;DHT22;16786;49.466;11.068;2023-07-29T11:23:01;23.90;99.90
29917;DHT22;16786;49.466;11.068;2023-07-29T11:25:30;23.90;99.90
29917;DHT22;16786;49.466;11.068;2023-07-29T11:27:59;23.80;99.90
29917;DHT22;16786;49.466;11.068;2023-07-29T11:30:30;23.80;99.90
29917;DHT22;16786;49.466;11.068;2023-07-29T11:32:58;23.90;99.90
29917;DHT22;16786;49.466;11.068;2023-07-29T11:35:26;23.50;99.90
29917;DHT22;16786;49.466;11.068;2023-07-29T11:37:54;23.40;99.90
29917;DHT22;16786;49.466;11.068;2023-07-29T11:40:24;23.30;99.90
29917;DHT22;16786;49.466;11.068;2023-07-29T11:42:52;23.30;99.90
29917;DHT22;16786;49.466;11.068;2023-07-29T11:45:22;23.40;99.90
29917;DHT22;16786;49.466;11.068;2023-07-29T11:47:58;23.30;99.90
29917;DHT22;16786;49.466;11.068;2023-07-29T11:50:26;23.50;99.90
29917;DHT22;16786;49.466;11.068;2023-07-29T11:52:54;23.80;99.90
29917;DHT22;16786;49.466;11.068;2023-07-29T11:55:21;23.90;99.90
29917;DHT22;16786;49.466;11.068;2023-07-29T11:57:51;24.00;99.90
29917;DHT22;16786;49.466;11.068;2023-07-29T12:00:18;24.30;99.90
29917;DHT22;16786;49.466;11.068;2023-07-29T12:02:49;24.40;99.90
29917;DHT22;16786;49.466;11.068;2023-07-29T12:05:17;24.30;99.90
29917;DHT22;16786;49.466;11.068;2023-07-29T12:07:45;24.30;99.90
29917;DHT22;16786;49.466;11.068;2023-07-29T12:10:13;24.30;99.90
29917;DHT22;16786;49.466;11.068;2023-07-29T12:12:47;24.40;99.90
29917;DHT22;16786;49.466;11.068;2023-07-29T12:15:23;24.70;99.90
29917;DHT22;16786;49.466;11.068;2023-07-29T12:17:53;24.70;99.90
29917;DHT22;16786;49.466;11.068;2023-07-29T12:20:22;24.30;99.90
29917;DHT22;16786;49.466;11.068;2023-07-29T12:22:55;24.50;99.90
29917;DHT22;16786;49.466;11.068;2023-07-29T12:25:23;25.00;99.90
29917;DHT22;16786;49.466;11.068;2023-07-29T12:27:51;25.00;99.90
29917;DHT22;16786;49.466;11.068;2023-07-29T12:30:22;25.10;99.90
29917;DHT22;16786;49.466;11.068;2023-07-29T12:32:49;25.10;99.90
29917;DHT22;16786;49.466;11.068;2023-07-29T12:35:17;24.80;99.90
29917;DHT22;16786;49.466;11.068;2023-07-29T12:37:44;24.90;99.90
29917;DHT22;16786;49.466;11.068;2023-07-29T12:40:24;25.00;99.90
29917;DHT22;16786;49.466;11.068;2023-07-29T12:42:52;25.10;99.90
29917;DHT22;16786;49.466;11.068;2023-07-29T12:45:20;25.40;99.90
29917;DHT22;16786;49.466;11.068;2023-07-29T12:47:50;25.80;99.90
29917;DHT22;16786;49.466;11.068;2023-07-29T12:50:17;26.00;99.90
29917;DHT22;16786;49.466;11.068;2023-07-29T12:52:45;26.00;99.90
29917;DHT22;16786;49.466;11.068;2023-07-29T12:55:12;26.40;99.90
29917;DHT22;16786;49.466;11.068;2023-07-29T12:57:42;27.00;99.90
29917;DHT22;16786;49.466;11.068;2023-07-29T13:00:10;27.00;99.90
29917;DHT22;16786;49.466;11.068;2023-07-29T13:02:38;27.50;99.90
29917;DHT22;16786;49.466;11.068;2023-07-29T13:05:09;28.10;99.90
29917;DHT22;16786;49.466;11.068;2023-07-29T13:07:41;27.90;99.90
29917;DHT22;16786;49.466;11.068;2023-07-29T13:10:10;27.80;99.90
29917;DHT22;16786;49.466;11.068;2023-07-29T13:12:37;27.60;99.90
29917;DHT22;16786;49.466;11.068;2023-07-29T13:15:05;27.70;99.90
29917;DHT22;16786;49.466;11.068;2023-07-29T13:17:34;27.90;99.90
29917;DHT22;16786;49.466;11.068;2023-07-29T13:20:01;27.80;99.90
29917;DHT22;16786;49.466;11.068;2023-07-29T13:22:29;28.50;99.90
29917;DHT22;16786;49.466;11.068;2023-07-29T13:24:56;28.80;99.90
29917;DHT22;16786;49.466;11.068;2023-07-29T13:27:23;28.60;99.90
29917;DHT22;16786;49.466;11.068;2023-07-29T13:29:52;28.40;99.90
29917;DHT22;16786;49.466;11.068;2023-07-29T13:32:19;27.70;99.90
29917;DHT22;16786;49.466;11.068;2023-07-29T13:34:46;27.40;99.90
29917;DHT22;16786;49.466;11.068;2023-07-29T13:37:14;27.80;99.90
29917;DHT22;16786;49.466;11.068;2023-07-29T13:39:41;28.20;99.90
29917;DHT22;16786;49.466;11.068;2023-07-29T13:42:09;27.90;99.90
29917;DHT22;16786;49.466;11.068;2023-07-29T13:44:36;28.40;99.90
29917;DHT22;16786;49.466;11.068;2023-07-29T13:47:03;28.90;99.90
29917;DHT22;16786;49.466;11.068;2023-07-29T13:49:31;29.10;99.90
29917;DHT22;16786;49.466;11.068;2023-07-29T13:51:58;28.20;99.90
29917;DHT22;16786;49.466;11.068;2023-07-29T13:54:25;28.20;99.90
29917;DHT22;16786;49.466;11.068;2023-07-29T13:56:55;28.00;99.90
29917;DHT22;16786;49.466;11.068;2023-07-29T13:59:23;28.20;99.90
29917;DHT22;16786;49.466;11.068;2023-07-29T14:01:50;28.30;99.90
29917;DHT22;16786;49.466;11.068;2023-07-29T14:04:18;28.30;99.90
29917;DHT22;16786;49.466;11.068;2023-07-29T14:06:45;29.90;99.90
29917;DHT22;16786;49.466;11.068;2023-07-29T14:09:18;30.40;99.90
29917;DHT22;16786;49.466;11.068;2023-07-29T14:11:46;30.00;99.90
29917;DHT22;16786;49.466;11.068;2023-07-29T14:14:14;30.00;99.90
29917;DHT22;16786;49.466;11.068;2023-07-29T14:16:42;30.60;99.90
29917;DHT22;16786;49.466;11.068;2023-07-29T14:19:11;30.60;99.90
29917;DHT22;16786;49.466;11.068;2023-07-29T14:21:38;31.50;99.90
29917;DHT22;16786;49.466;11.068;2023-07-29T14:24:06;30.70;99.90
29917;DHT22;16786;49.466;11.068;2023-07-29T14:26:33;29.60;99.90
29917;DHT22;16786;49.466;11.068;2023-07-29T14:29:01;28.80;99.90
29917;DHT22;16786;49.466;11.068;2023-07-29T14:31:29;28.40;99.90
29917;DHT22;16786;49.466;11.068;2023-07-29T14:33:56;28.50;99.90
29917;DHT22;16786;49.466;11.068;2023-07-29T14:36:23;28.60;99.90
29917;DHT22;16786;49.466;11.068;2023-07-29T14:38:55;28.50;99.90
29917;DHT22;16786;49.466;11.068;2023-07-29T14:41:22;28.10;99.90
29917;DHT22;16786;49.466;11.068;2023-07-29T14:43:49;28.80;99.90
29917;DHT22;16786;49.466;11.068;2023-07-29T14:46:17;29.70;99.90
29917;DHT22;16786;49.466;11.068;2023-07-29T14:48:44;30.70;99.90
29917;DHT22;16786;49.466;11.068;2023-07-29T14:51:12;31.70;99.90
29917;DHT22;16786;49.466;11.068;2023-07-29T14:53:40;32.00;99.90
29917;DHT22;16786;49.466;11.068;2023-07-29T14:56:07;32.20;99.90
29917;DHT22;16786;49.466;11.068;2023-07-29T14:58:34;32.10;99.90
29917;DHT22;16786;49.466;11.068;2023-07-29T15:01:02;32.00;99.90
29917;DHT22;16786;49.466;11.068;2023-07-29T15:03:29;31.50;99.90
29917;DHT22;16786;49.466;11.068;2023-07-29T15:05:57;32.40;99.90
29917;DHT22;16786;49.466;11.068;2023-07-29T15:08:26;32.90;99.90
29917;DHT22;16786;49.466;11.068;2023-07-29T15:10:53;32.70;99.90
29917;DHT22;16786;49.466;11.068;2023-07-29T15:13:21;32.30;99.90
29917;DHT22;16786;49.466;11.068;2023-07-29T15:15:49;31.90;99.90
29917;DHT22;16786;49.466;11.068;2023-07-29T15:18:17;31.10;99.90
29917;DHT22;16786;49.466;11.068;2023-07-29T15:20:45;31.40;99.90
29917;DHT22;16786;49.466;11.068;2023-07-29T15:23:12;32.00;99.90
29917;DHT22;16786;49.466;11.068;2023-07-29T15:25:39;32.50;99.90
29917;DHT22;16786;49.466;11.068;2023-07-29T15:28:07;33.10;99.90
29917;DHT22;16786;49.466;11.068;2023-07-29T15:30:36;33.90;99.40